Burnet's Hourly Summary for Friday, July 6, 2018
Hour Temp
(f)
RH
(%)
Solar Rad.
(MJ/m2)
Rainfall
(in)
Wind
(mph)
7/6/2018 12:00 AM 75 75 0 0 0.76
7/6/2018 1:00 AM 74 78 0 0 0.47
7/6/2018 2:00 AM 73 78 0 0 0.56
7/6/2018 3:00 AM 75 75 0 0 0.91
7/6/2018 4:00 AM 76 67 0 0 1.85
7/6/2018 5:00 AM 76 75 0 0 3.41
7/6/2018 6:00 AM 75 79 0 0 2.12
7/6/2018 7:00 AM 77 79 0.02 0 1.69
7/6/2018 8:00 AM 78 78 0.38 0 1.87
7/6/2018 9:00 AM 81 76 0.96 0 4.19
7/6/2018 10:00 AM 83 68 1.63 0 4.09
7/6/2018 11:00 AM 86 61 2.18 0 3.26
7/6/2018 12:00 PM 89 56 2.34 0 4.55
7/6/2018 1:00 PM 91 44 2.68 0 5.22
7/6/2018 2:00 PM 91 42 2.92 0 6.2
7/6/2018 3:00 PM 93 40 1.82 0 6.66
7/6/2018 4:00 PM 94 36 2.37 0 7.29
7/6/2018 5:00 PM 94 35 1.53 0 7.93
7/6/2018 6:00 PM 93 36 1.42 0 7.9
7/6/2018 7:00 PM 92 48 0.9 0.01 8.09
7/6/2018 8:00 PM 80 64 0.2 0 4.59
7/6/2018 9:00 PM 80 70 0.04 0 3.27
7/6/2018 10:00 PM 78 74 0 0 4.04
7/6/2018 11:00 PM 78 77 0 0 4.34
Data Summary 82 62 21.39 0.01 3.97